createdAt,value
2023-01-22T00:00:19.174Z,22.42
2023-01-22T00:02:49.271Z,22.05
2023-01-22T00:05:18.799Z,22.02
2023-01-22T00:07:48.151Z,22.38
2023-01-22T00:10:19.058Z,24.40
2023-01-22T00:12:48.453Z,22.55
2023-01-22T00:15:17.740Z,23.42
2023-01-22T00:17:47.051Z,23.05
2023-01-22T00:20:16.833Z,23.20
2023-01-22T00:22:46.754Z,23.73
2023-01-22T00:25:18.465Z,24.65
2023-01-22T00:27:47.436Z,22.45
2023-01-22T00:30:16.631Z,20.35
2023-01-22T00:32:47.752Z,23.38
2023-01-22T00:35:17.203Z,21.48
2023-01-22T00:37:50.053Z,19.95
2023-01-22T00:40:21.391Z,21.40
2023-01-22T00:42:50.836Z,18.88
2023-01-22T00:45:20.202Z,20.30
2023-01-22T00:47:49.094Z,20.50
2023-01-22T00:50:18.974Z,19.75
2023-01-22T00:52:48.700Z,20.15
2023-01-22T00:55:19.351Z,20.40
2023-01-22T00:57:48.348Z,18.02
2023-01-22T01:00:18.674Z,20.33
2023-01-22T01:03:04.997Z,17.85
2023-01-22T01:05:34.619Z,18.50
2023-01-22T01:08:03.411Z,18.10
2023-01-22T01:10:34.074Z,19.08
2023-01-22T01:13:02.757Z,18.35
2023-01-22T01:15:31.122Z,19.75
2023-01-22T01:17:59.649Z,18.77
2023-01-22T01:20:28.473Z,18.85
2023-01-22T01:22:57.190Z,19.48
2023-01-22T01:25:26.359Z,19.50
2023-01-22T01:27:58.158Z,17.92
2023-01-22T01:30:27.177Z,18.65
2023-01-22T01:32:56.096Z,18.02
2023-01-22T01:35:25.705Z,19.30
2023-01-22T01:37:55.359Z,19.05
2023-01-22T01:40:25.150Z,17.40
2023-01-22T01:42:55.571Z,16.58
2023-01-22T01:45:29.383Z,16.05
2023-01-22T01:48:29.999Z,15.40
2023-01-22T01:51:06.937Z,14.90
2023-01-22T01:53:36.919Z,14.18
2023-01-22T01:56:13.558Z,15.18
2023-01-22T01:58:46.659Z,13.10
2023-01-22T02:01:20.070Z,14.50
2023-01-22T02:03:49.545Z,14.00
2023-01-22T02:06:22.808Z,14.40
2023-01-22T02:08:53.776Z,14.32
2023-01-22T02:11:24.245Z,12.77
2023-01-22T02:14:01.586Z,13.00
2023-01-22T02:16:30.781Z,12.65
2023-01-22T02:18:59.570Z,12.18
2023-01-22T02:21:40.000Z,12.38
2023-01-22T02:24:12.721Z,12.05
2023-01-22T02:26:43.462Z,11.57
2023-01-22T02:29:15.122Z,11.98
2023-01-22T02:31:44.479Z,11.35
2023-01-22T02:34:13.202Z,11.18
2023-01-22T02:36:44.380Z,11.43
2023-01-22T02:39:12.793Z,10.70
2023-01-22T02:41:41.587Z,10.80
2023-01-22T02:44:10.786Z,11.07
2023-01-22T02:46:39.607Z,9.63
2023-01-22T02:49:08.248Z,10.52
2023-01-22T02:51:37.314Z,9.00
2023-01-22T02:54:07.824Z,9.48
2023-01-22T02:56:39.181Z,8.98
2023-01-22T02:59:08.006Z,8.82
2023-01-22T03:01:36.882Z,9.15
2023-01-22T03:04:11.203Z,8.27
2023-01-22T03:06:42.975Z,8.05
2023-01-22T03:09:14.745Z,6.80
2023-01-22T03:11:46.327Z,7.40
2023-01-22T03:14:33.619Z,7.38
2023-01-22T03:17:39.550Z,8.57
2023-01-22T03:20:46.275Z,9.60
2023-01-22T03:23:19.762Z,9.50
2023-01-22T03:25:59.245Z,10.00
2023-01-22T03:28:28.089Z,10.00
2023-01-22T03:30:57.457Z,10.65
2023-01-22T03:33:27.344Z,11.30
2023-01-22T03:36:02.522Z,12.70
2023-01-22T03:38:31.376Z,10.73
2023-01-22T03:41:07.374Z,12.00
2023-01-22T03:43:38.798Z,13.43
2023-01-22T03:46:11.745Z,12.52
2023-01-22T03:48:41.524Z,11.88
2023-01-22T03:51:14.716Z,12.13
2023-01-22T03:53:45.820Z,12.77
2023-01-22T03:56:18.204Z,12.93
2023-01-22T03:58:47.418Z,12.43
2023-01-22T04:01:18.596Z,13.45
2023-01-22T04:03:48.155Z,12.88
2023-01-22T04:06:18.277Z,13.43
2023-01-22T04:08:50.256Z,13.63
2023-01-22T04:11:20.650Z,12.82
2023-01-22T04:13:50.078Z,13.50
2023-01-22T04:16:39.362Z,14.52
2023-01-22T04:19:27.990Z,13.57
2023-01-22T04:22:16.713Z,14.98
2023-01-22T04:25:06.016Z,13.10
2023-01-22T04:27:56.713Z,14.90
2023-01-22T04:30:29.454Z,13.85
2023-01-22T04:32:58.561Z,14.27
2023-01-22T04:35:51.777Z,14.55
2023-01-22T04:38:40.238Z,13.73
2023-01-22T04:41:28.731Z,13.48
2023-01-22T04:44:18.946Z,13.85
2023-01-22T04:47:07.684Z,13.88
2023-01-22T04:49:56.397Z,13.70
2023-01-22T04:52:45.550Z,14.45
2023-01-22T04:55:34.583Z,13.95
2023-01-22T04:58:23.204Z,14.63
2023-01-22T05:01:13.699Z,14.77
2023-01-22T05:04:03.363Z,13.10
2023-01-22T05:06:52.784Z,14.60
2023-01-22T05:09:41.803Z,14.45
2023-01-22T05:12:30.402Z,13.93
2023-01-22T05:15:24.427Z,14.05
2023-01-22T05:18:14.997Z,13.40
2023-01-22T05:21:03.733Z,12.95
2023-01-22T05:23:52.184Z,12.85
2023-01-22T05:26:40.729Z,13.55
2023-01-22T05:29:09.952Z,12.85
2023-01-22T05:31:38.953Z,12.23
2023-01-22T05:34:09.812Z,10.73
2023-01-22T05:36:58.512Z,8.88
2023-01-22T05:39:47.016Z,8.85
2023-01-22T05:42:35.825Z,9.25
2023-01-22T05:45:24.503Z,8.63
2023-01-22T05:48:15.591Z,8.23
2023-01-22T05:51:10.569Z,8.02
2023-01-22T05:53:59.092Z,7.43
2023-01-22T05:56:27.564Z,7.70
2023-01-22T05:58:56.563Z,7.63
2023-01-22T06:01:45.058Z,7.93
2023-01-22T06:04:33.676Z,7.38
2023-01-22T06:07:23.822Z,7.07
2023-01-22T06:10:26.603Z,7.55
2023-01-22T06:13:15.444Z,8.27
2023-01-22T06:16:04.487Z,7.75
2023-01-22T06:18:52.234Z,7.90
2023-01-22T06:21:21.901Z,7.90
2023-01-22T06:23:54.984Z,8.10
2023-01-22T06:26:43.862Z,7.75
2023-01-22T06:29:32.624Z,7.70
2023-01-22T06:32:21.484Z,7.82
2023-01-22T06:35:10.890Z,7.40
2023-01-22T06:37:59.750Z,8.38
2023-01-22T06:40:55.431Z,7.55
2023-01-22T06:43:44.006Z,7.97
2023-01-22T06:46:36.255Z,7.18
2023-01-22T06:49:05.038Z,8.20
2023-01-22T06:51:35.234Z,7.97
2023-01-22T06:54:18.563Z,7.57
2023-01-22T06:56:49.655Z,8.32
2023-01-22T06:59:41.424Z,8.25
2023-01-22T07:02:31.310Z,8.55
2023-01-22T07:05:20.367Z,8.70
2023-01-22T07:08:09.189Z,8.75
2023-01-22T07:10:58.043Z,8.15
2023-01-22T07:13:50.841Z,8.30
2023-01-22T07:16:41.992Z,8.73
2023-01-22T07:19:34.817Z,9.07
2023-01-22T07:22:04.347Z,8.88
2023-01-22T07:24:52.973Z,8.85
2023-01-22T07:27:41.739Z,8.65
2023-01-22T07:30:40.542Z,9.15
2023-01-22T07:33:29.165Z,8.80
2023-01-22T07:36:02.980Z,8.02
2023-01-22T07:38:31.999Z,7.80
2023-01-22T07:41:26.059Z,8.23
2023-01-22T07:44:16.647Z,8.98
2023-01-22T07:47:06.922Z,8.18
2023-01-22T07:49:56.472Z,7.95
2023-01-22T07:52:47.040Z,7.70
2023-01-22T07:55:35.600Z,8.60
2023-01-22T07:58:09.610Z,8.20
2023-01-22T08:00:41.980Z,8.32
2023-01-22T08:03:34.104Z,8.02
2023-01-22T08:06:25.647Z,8.02
2023-01-22T08:09:15.738Z,7.88
2023-01-22T08:12:04.561Z,7.97
2023-01-22T08:14:53.435Z,7.78
2023-01-22T08:17:42.347Z,7.57
2023-01-22T08:20:34.580Z,8.07
2023-01-22T08:23:23.621Z,7.43
2023-01-22T08:25:52.301Z,7.25
2023-01-22T08:28:22.086Z,7.53
2023-01-22T08:30:51.816Z,7.40
2023-01-22T08:33:22.756Z,6.90
2023-01-22T08:36:15.199Z,7.85
2023-01-22T08:39:04.102Z,8.05
2023-01-22T08:41:57.877Z,9.00
2023-01-22T08:44:46.831Z,7.78
2023-01-22T08:47:35.842Z,7.50
2023-01-22T08:50:24.695Z,7.63
2023-01-22T08:53:19.851Z,7.50
2023-01-22T08:55:51.860Z,8.23
2023-01-22T08:58:22.414Z,7.07
2023-01-22T09:00:57.016Z,6.93
2023-01-22T09:03:26.320Z,7.72
2023-01-22T09:06:15.831Z,7.70
2023-01-22T09:09:07.624Z,7.70
2023-01-22T09:11:56.189Z,7.25
2023-01-22T09:14:44.670Z,8.15
2023-01-22T09:17:34.441Z,8.55
2023-01-22T09:20:23.709Z,7.13
2023-01-22T09:23:14.248Z,6.88
2023-01-22T09:26:06.327Z,7.03
2023-01-22T09:28:55.904Z,6.45
2023-01-22T09:31:26.979Z,7.28
2023-01-22T09:33:57.031Z,7.10
2023-01-22T09:36:27.630Z,7.65
2023-01-22T09:38:57.400Z,7.15
2023-01-22T09:41:34.206Z,7.63
2023-01-22T09:44:07.979Z,7.38
2023-01-22T09:46:44.539Z,7.90
2023-01-22T09:49:18.265Z,8.27
2023-01-22T09:51:52.010Z,9.02
2023-01-22T09:54:20.956Z,9.15
2023-01-22T09:56:54.457Z,8.02
2023-01-22T09:59:28.548Z,8.07
2023-01-22T10:02:02.947Z,8.48
2023-01-22T10:04:39.201Z,8.40
2023-01-22T10:07:14.962Z,7.38
2023-01-22T10:09:52.478Z,7.38
2023-01-22T10:12:23.124Z,8.63
2023-01-22T10:14:53.653Z,7.88
2023-01-22T10:17:26.451Z,6.97
2023-01-22T10:20:00.994Z,7.93
2023-01-22T10:22:30.268Z,7.22
2023-01-22T10:25:00.044Z,7.10
2023-01-22T10:27:39.546Z,6.53
2023-01-22T10:30:22.384Z,6.50
2023-01-22T10:33:01.662Z,6.45
2023-01-22T10:35:32.132Z,6.97
2023-01-22T10:38:01.986Z,6.22
2023-01-22T10:40:38.055Z,5.93
2023-01-22T10:43:14.961Z,5.97
2023-01-22T10:45:54.545Z,6.22
2023-01-22T10:48:24.429Z,5.82
2023-01-22T10:51:05.316Z,5.80
2023-01-22T10:53:38.232Z,5.53
2023-01-22T10:56:13.106Z,5.55
2023-01-22T10:58:49.479Z,5.40
2023-01-22T11:01:33.248Z,5.32
2023-01-22T11:04:12.505Z,4.97
2023-01-22T11:06:47.385Z,5.18
2023-01-22T11:09:21.093Z,5.07
2023-01-22T11:12:10.861Z,6.68
2023-01-22T11:14:41.165Z,4.82
2023-01-22T11:17:20.734Z,4.70
2023-01-22T11:19:58.317Z,5.22
2023-01-22T11:22:34.792Z,5.15
2023-01-22T11:25:06.270Z,5.03
2023-01-22T11:27:59.015Z,5.40
2023-01-22T11:31:18.223Z,5.10
2023-01-22T11:34:20.207Z,4.80
2023-01-22T11:36:59.462Z,5.10
2023-01-22T11:40:01.416Z,5.43
2023-01-22T11:42:48.142Z,4.65
2023-01-22T11:45:35.853Z,4.53
2023-01-22T11:48:30.918Z,5.80
2023-01-22T11:51:14.811Z,4.82
2023-01-22T11:54:12.177Z,5.03
2023-01-22T11:57:04.984Z,4.97
2023-01-22T11:59:52.497Z,5.80
2023-01-22T12:02:56.579Z,5.55
2023-01-22T12:05:41.131Z,5.63
2023-01-22T12:08:36.249Z,5.68
2023-01-22T12:11:49.966Z,6.35
2023-01-22T12:14:47.408Z,5.25
2023-01-22T12:17:33.832Z,6.35
2023-01-22T12:20:51.554Z,6.28
2023-01-22T12:23:29.125Z,5.47
2023-01-22T12:26:04.530Z,6.03
2023-01-22T12:28:42.362Z,5.38
2023-01-22T12:31:17.805Z,6.40
2023-01-22T12:33:46.841Z,5.68
2023-01-22T12:36:20.796Z,6.20
2023-01-22T12:38:58.423Z,6.35
2023-01-22T12:41:45.490Z,6.53
2023-01-22T12:44:31.648Z,6.72
2023-01-22T12:47:13.437Z,6.60
2023-01-22T12:49:50.835Z,6.60
2023-01-22T12:52:32.446Z,6.40
2023-01-22T12:55:04.036Z,7.15
2023-01-22T12:57:42.939Z,6.65
2023-01-22T13:00:26.505Z,6.60
2023-01-22T13:02:55.851Z,7.10
2023-01-22T13:05:45.544Z,6.72
2023-01-22T13:08:44.576Z,7.43
2023-01-22T13:11:28.784Z,7.43
2023-01-22T13:14:14.888Z,7.63
2023-01-22T13:16:54.095Z,7.82
2023-01-22T13:19:25.358Z,8.35
2023-01-22T13:21:54.669Z,8.18
2023-01-22T13:24:23.312Z,8.13
2023-01-22T13:26:57.305Z,7.63
2023-01-22T13:29:32.249Z,7.15
2023-01-22T13:34:32.963Z,7.03
2023-01-22T13:37:01.757Z,7.82
2023-01-22T13:39:33.554Z,7.88
2023-01-22T13:42:06.747Z,7.93
2023-01-22T13:44:40.152Z,7.90
2023-01-22T13:47:09.171Z,7.53
2023-01-22T13:49:44.333Z,8.63
2023-01-22T13:54:49.445Z,7.93
2023-01-22T13:57:24.465Z,7.57
2023-01-22T13:59:58.246Z,8.30
2023-01-22T14:02:31.576Z,8.40
2023-01-22T14:05:01.828Z,8.88
2023-01-22T14:07:33.951Z,8.32
2023-01-22T14:10:18.392Z,10.73
2023-01-22T14:13:00.326Z,9.57
2023-01-22T14:15:29.712Z,9.85
2023-01-22T14:18:10.200Z,10.57
2023-01-22T14:20:41.240Z,9.80
2023-01-22T14:23:10.429Z,10.23
2023-01-22T14:25:40.919Z,9.10
2023-01-22T14:28:12.094Z,9.68
2023-01-22T14:30:41.132Z,10.07
2023-01-22T14:33:13.325Z,9.15
2023-01-22T14:35:44.390Z,9.57
2023-01-22T14:38:13.241Z,9.57
2023-01-22T14:40:42.225Z,10.10
2023-01-22T14:43:12.917Z,8.80
2023-01-22T14:45:42.726Z,9.27
2023-01-22T14:48:14.421Z,9.60
2023-01-22T14:50:43.669Z,9.52
2023-01-22T14:53:14.054Z,9.85
2023-01-22T14:55:44.068Z,9.55
2023-01-22T14:58:19.348Z,9.88
2023-01-22T15:03:17.042Z,9.40
2023-01-22T15:05:46.362Z,9.10
2023-01-22T15:08:15.743Z,9.32
2023-01-22T15:10:45.252Z,9.85
2023-01-22T15:13:16.192Z,9.10
2023-01-22T15:15:45.375Z,9.63
2023-01-22T15:18:15.038Z,10.27
2023-01-22T15:20:46.602Z,10.60
2023-01-22T15:23:15.540Z,9.90
2023-01-22T15:25:44.538Z,10.23
2023-01-22T15:28:14.857Z,10.15
2023-01-22T15:30:46.967Z,10.82
2023-01-22T15:33:16.725Z,9.95
2023-01-22T15:35:45.515Z,10.77
2023-01-22T15:38:14.323Z,10.63
2023-01-22T15:40:43.408Z,10.75
2023-01-22T15:43:12.334Z,11.30
2023-01-22T15:45:42.801Z,12.23
2023-01-22T15:48:14.280Z,11.63
2023-01-22T15:50:43.503Z,12.77
2023-01-22T15:53:12.307Z,10.65
2023-01-22T15:55:44.853Z,10.88
2023-01-22T15:58:14.142Z,11.52
2023-01-22T16:00:45.400Z,11.20
2023-01-22T16:03:14.280Z,10.63
2023-01-22T16:05:43.524Z,10.77
2023-01-22T16:08:12.521Z,10.88
2023-01-22T16:10:43.100Z,12.05
2023-01-22T16:13:12.023Z,11.02
2023-01-22T16:15:41.710Z,11.07
2023-01-22T16:18:12.365Z,10.75
2023-01-22T16:20:42.877Z,10.68
2023-01-22T16:23:12.817Z,11.02
2023-01-22T16:25:42.183Z,11.10
2023-01-22T16:28:11.524Z,11.43
2023-01-22T16:30:43.099Z,11.18
2023-01-22T16:33:24.625Z,11.85
2023-01-22T16:36:01.403Z,12.77
2023-01-22T16:38:31.637Z,12.18
2023-01-22T16:41:24.089Z,12.43
2023-01-22T16:43:59.380Z,13.15
2023-01-22T16:46:32.436Z,13.15
2023-01-22T16:49:05.630Z,11.20
2023-01-22T16:51:37.859Z,12.60
2023-01-22T16:54:08.290Z,12.55
2023-01-22T16:56:37.137Z,13.57
2023-01-22T16:59:05.864Z,14.13
2023-01-22T17:01:35.637Z,14.93
2023-01-22T17:04:10.819Z,12.85
2023-01-22T17:06:44.006Z,12.48
2023-01-22T17:09:17.361Z,12.68
2023-01-22T17:11:47.661Z,12.38
2023-01-22T17:14:19.341Z,13.45
2023-01-22T17:16:48.325Z,12.20
2023-01-22T17:19:22.708Z,11.73
2023-01-22T17:21:55.129Z,12.70
2023-01-22T17:24:23.996Z,11.68
2023-01-22T17:26:53.357Z,12.13
2023-01-22T17:29:23.361Z,11.27
2023-01-22T17:31:54.982Z,12.07
2023-01-22T17:34:25.651Z,11.75
2023-01-22T17:36:55.294Z,11.52
2023-01-22T17:39:25.608Z,11.48
2023-01-22T17:41:55.010Z,12.43
2023-01-22T17:44:26.701Z,11.70
2023-01-22T17:46:59.122Z,11.48
2023-01-22T17:49:29.404Z,11.25
2023-01-22T17:51:58.356Z,11.05
2023-01-22T17:54:27.573Z,11.00
2023-01-22T17:56:56.787Z,12.32
2023-01-22T17:59:26.866Z,11.73
2023-01-22T18:01:56.927Z,11.15
2023-01-22T18:04:26.736Z,11.38
2023-01-22T18:07:09.339Z,12.40
2023-01-22T18:09:44.960Z,12.70
2023-01-22T18:12:14.295Z,12.35
2023-01-22T18:14:46.329Z,12.10
2023-01-22T18:17:15.340Z,12.70
2023-01-22T18:19:45.174Z,12.23
2023-01-22T18:22:15.663Z,12.23
2023-01-22T18:24:45.375Z,12.50
2023-01-22T18:27:14.459Z,12.77
2023-01-22T18:29:43.259Z,12.82
2023-01-22T18:32:12.171Z,11.75
2023-01-22T18:34:40.959Z,12.00
2023-01-22T18:37:12.116Z,12.30
2023-01-22T18:39:43.597Z,11.95
2023-01-22T18:42:13.631Z,11.45
2023-01-22T18:44:44.213Z,11.63
2023-01-22T18:47:13.904Z,12.63
2023-01-22T18:49:43.189Z,11.85
2023-01-22T18:52:12.589Z,11.70
2023-01-22T18:54:42.910Z,11.73
2023-01-22T18:57:12.208Z,12.07
2023-01-22T18:59:41.834Z,12.57
2023-01-22T19:02:55.619Z,13.95
2023-01-22T19:05:30.805Z,13.57
2023-01-22T19:10:30.864Z,11.75
2023-01-22T19:13:01.262Z,12.70
2023-01-22T19:15:32.802Z,13.75
2023-01-22T19:18:03.374Z,14.60
2023-01-22T19:20:32.527Z,14.07
2023-01-22T19:23:06.106Z,13.20
2023-01-22T19:25:37.928Z,12.02
2023-01-22T19:28:10.274Z,12.13
2023-01-22T19:30:39.215Z,12.55
2023-01-22T19:33:08.066Z,11.85
2023-01-22T19:35:37.015Z,12.73
2023-01-22T19:38:05.935Z,14.20
2023-01-22T19:40:39.554Z,14.65
2023-01-22T19:43:09.364Z,13.30
2023-01-22T19:45:38.915Z,13.30
2023-01-22T19:48:08.522Z,13.95
2023-01-22T19:50:41.376Z,13.52
2023-01-22T19:53:17.823Z,13.68
2023-01-22T19:58:17.229Z,12.95
2023-01-22T20:00:46.642Z,13.98
2023-01-22T20:03:15.729Z,13.35
2023-01-22T20:05:46.795Z,13.32
2023-01-22T20:08:16.937Z,12.88
2023-01-22T20:10:51.214Z,12.40
2023-01-22T20:13:20.233Z,11.90
2023-01-22T20:15:49.143Z,12.18
2023-01-22T20:18:18.343Z,11.65
2023-01-22T20:20:54.342Z,12.90
2023-01-22T20:23:23.934Z,12.45
2023-01-22T20:25:55.744Z,15.50
2023-01-22T20:28:26.358Z,13.80
2023-01-22T20:31:00.732Z,13.15
2023-01-22T20:33:31.361Z,12.75
2023-01-22T20:36:03.389Z,12.48
2023-01-22T20:38:32.406Z,12.40
2023-01-22T20:41:09.280Z,12.75
2023-01-22T20:43:39.358Z,13.10
2023-01-22T20:46:12.475Z,12.20
2023-01-22T20:48:43.827Z,12.32
2023-01-22T20:51:17.005Z,12.63
2023-01-22T20:53:49.344Z,14.00
2023-01-22T20:56:23.677Z,13.25
2023-01-22T20:58:58.191Z,12.50
2023-01-22T21:01:27.657Z,12.65
2023-01-22T21:03:58.847Z,11.95
2023-01-22T21:06:31.074Z,12.38
2023-01-22T21:09:01.409Z,12.32
2023-01-22T21:11:37.321Z,13.23
2023-01-22T21:14:09.523Z,12.98
2023-01-22T21:16:44.712Z,13.52
2023-01-22T21:19:23.598Z,12.57
2023-01-22T21:21:55.708Z,12.20
2023-01-22T21:24:25.366Z,12.75
2023-01-22T21:26:56.115Z,11.93
2023-01-22T21:29:25.867Z,12.75
2023-01-22T21:31:54.845Z,12.63
2023-01-22T21:34:26.416Z,12.85
2023-01-22T21:36:58.858Z,11.95
2023-01-22T21:39:30.334Z,12.55
2023-01-22T21:42:14.904Z,12.95
2023-01-22T21:45:01.606Z,13.40
2023-01-22T21:47:31.647Z,12.45
2023-01-22T21:50:01.873Z,12.10
2023-01-22T21:52:30.734Z,12.20
2023-01-22T21:55:00.850Z,12.00
2023-01-22T21:57:31.537Z,12.15
2023-01-22T22:00:00.986Z,12.57
2023-01-22T22:02:29.991Z,12.85
2023-01-22T22:05:00.063Z,13.00
2023-01-22T22:07:29.074Z,13.00
2023-01-22T22:09:57.892Z,12.02
2023-01-22T22:12:27.810Z,12.20
2023-01-22T22:14:58.428Z,11.90
2023-01-22T22:17:27.208Z,11.75
2023-01-22T22:19:55.984Z,13.00
2023-01-22T22:22:25.119Z,11.90
2023-01-22T22:24:54.238Z,11.98
2023-01-22T22:27:26.959Z,12.75
2023-01-22T22:29:58.490Z,12.07
2023-01-22T22:32:27.311Z,11.98
2023-01-22T22:34:56.413Z,13.10
2023-01-22T22:37:25.761Z,12.95
2023-01-22T22:39:54.816Z,11.88
2023-01-22T22:42:23.543Z,12.10
2023-01-22T22:44:52.331Z,12.52
2023-01-22T22:47:22.594Z,12.00
2023-01-22T22:49:54.272Z,12.48
2023-01-22T22:52:23.017Z,11.70
2023-01-22T22:54:52.765Z,11.70
2023-01-22T22:57:21.548Z,11.40
2023-01-22T22:59:50.491Z,12.25
2023-01-22T23:02:19.291Z,12.00
2023-01-22T23:04:51.749Z,11.82
2023-01-22T23:07:20.887Z,12.88
2023-01-22T23:09:49.909Z,11.30
2023-01-22T23:12:18.896Z,11.93
2023-01-22T23:14:47.570Z,11.73
2023-01-22T23:17:16.708Z,11.85
2023-01-22T23:19:45.567Z,11.05
2023-01-22T23:22:16.181Z,10.38
2023-01-22T23:24:46.719Z,11.88
2023-01-22T23:27:15.409Z,10.77
2023-01-22T23:29:44.497Z,11.23
2023-01-22T23:32:13.292Z,11.55
2023-01-22T23:34:42.065Z,11.63
2023-01-22T23:37:10.865Z,11.27
2023-01-22T23:39:42.222Z,11.68
2023-01-22T23:42:11.513Z,11.93
2023-01-22T23:44:40.742Z,12.02
2023-01-22T23:47:09.302Z,11.25
2023-01-22T23:49:38.310Z,11.23
2023-01-22T23:52:07.624Z,11.35
2023-01-22T23:54:36.347Z,11.93
2023-01-22T23:57:06.609Z,12.63
2023-01-22T23:59:35.216Z,11.63
